Time;durP1;ratioP1;P1;durP2;ratioP2;P2;SDS_P1;SDS_P2;PMS_P1;PMS_P2;Temp;Humidity;BMP_temperature;BMP_pressure;BME280_temperature;BME280_humidity;BME280_pressure;Samples;Min_cycle;Max_cycle;Signal;HPM_P1;HPM_P2
2021/06/24 00:00:08;;;;;;;10.90;6.27;;;17.40;1.00;;;;;;5106439;27;20438;-76
2021/06/24 00:02:35;;;;;;;10.00;7.53;;;17.30;1.00;;;;;;5112225;27;20442;-76
2021/06/24 00:05:03;;;;;;;5.87;5.37;;;17.30;1.00;;;;;;5110592;27;20449;-76
2021/06/24 00:07:30;;;;;;;8.30;6.37;;;17.30;1.00;;;;;;5106920;27;20539;-76
2021/06/24 00:09:58;;;;;;;7.30;6.60;;;17.30;1.00;;;;;;5107879;27;20554;-77
2021/06/24 00:12:24;;;;;;;8.50;7.60;;;17.30;1.00;;;;;;5105423;27;20437;-77
2021/06/24 00:14:51;;;;;;;7.70;7.03;;;17.30;1.00;;;;;;5107022;27;20579;-77
2021/06/24 00:17:18;;;;;;;8.33;7.53;;;17.30;1.00;;;;;;5106286;27;20522;-77
2021/06/24 00:19:44;;;;;;;9.70;8.70;;;17.30;1.00;;;;;;5106047;27;20459;-76
2021/06/24 00:22:11;;;;;;;12.07;10.77;;;17.30;1.00;;;;;;5104254;27;20463;-78
2021/06/24 00:24:38;;;;;;;12.77;11.57;;;17.30;1.00;;;;;;5108937;27;20752;-76
2021/06/24 00:27:06;;;;;;;13.87;12.53;;;17.30;1.00;;;;;;5107000;27;20475;-76
2021/06/24 00:29:33;;;;;;;11.50;10.40;;;17.30;1.00;;;;;;5109349;27;21039;-76
2021/06/24 00:32:00;;;;;;;12.50;11.40;;;17.30;1.00;;;;;;5106537;27;21345;-76
2021/06/24 00:34:27;;;;;;;11.43;10.30;;;17.30;1.00;;;;;;5108899;27;20465;-76
2021/06/24 00:36:53;;;;;;;8.73;7.90;;;17.30;1.00;;;;;;5104092;27;20453;-77
2021/06/24 00:39:20;;;;;;;8.80;7.53;;;17.30;1.00;;;;;;5110020;27;21996;-77
2021/06/24 00:41:48;;;;;;;8.33;7.63;;;17.20;1.00;;;;;;5105263;27;20483;-77
2021/06/24 00:44:16;;;;;;;9.93;8.90;;;17.30;1.00;;;;;;5109854;27;20478;-77
2021/06/24 00:46:43;;;;;;;8.20;7.50;;;17.20;1.00;;;;;;5107654;27;20429;-77
2021/06/24 00:49:10;;;;;;;9.13;6.70;;;17.20;1.00;;;;;;5092877;27;20438;-76
2021/06/24 00:51:37;;;;;;;7.90;6.50;;;17.20;1.00;;;;;;5107339;27;20488;-76
2021/06/24 00:54:04;;;;;;;8.73;6.67;;;17.20;1.00;;;;;;5106790;27;20474;-75
2021/06/24 00:56:32;;;;;;;6.50;5.90;;;17.20;1.00;;;;;;5110462;27;20448;-76
2021/06/24 00:58:59;;;;;;;7.17;6.00;;;17.10;1.00;;;;;;5106104;27;20473;-76
2021/06/24 01:01:27;;;;;;;7.13;5.70;;;17.20;1.00;;;;;;5110067;27;20474;-77
2021/06/24 01:03:54;;;;;;;8.70;6.80;;;17.10;1.00;;;;;;5106675;27;20701;-77
2021/06/24 01:06:21;;;;;;;6.13;5.53;;;17.20;1.00;;;;;;5109694;27;20439;-77
2021/06/24 01:08:48;;;;;;;6.87;6.17;;;17.10;1.00;;;;;;5106165;27;20951;-77
2021/06/24 01:11:14;;;;;;;6.80;6.20;;;17.10;1.00;;;;;;5112638;27;20453;-77
2021/06/24 01:13:42;;;;;;;6.27;5.67;;;17.10;1.00;;;;;;5109564;27;20535;-77
2021/06/24 01:16:08;;;;;;;7.50;5.83;;;17.10;1.00;;;;;;5114864;27;20475;-77
2021/06/24 01:18:36;;;;;;;6.23;5.50;;;17.10;1.00;;;;;;5116417;27;20494;-77
2021/06/24 01:21:04;;;;;;;7.80;6.83;;;17.10;1.00;;;;;;5118155;27;20573;-77
2021/06/24 01:23:38;;;;;;;7.60;6.53;;;17.00;1.00;;;;;;5111100;27;20441;-77
2021/06/24 01:26:04;;;;;;;7.60;6.03;;;17.10;1.00;;;;;;5108170;27;21360;-75
2021/06/24 01:28:31;;;;;;;7.23;6.50;;;17.10;1.00;;;;;;5106324;27;20579;-76
2021/06/24 01:30:58;;;;;;;7.17;6.20;;;17.10;1.00;;;;;;5104677;27;21522;-76
2021/06/24 01:33:25;;;;;;;10.63;6.90;;;17.00;1.00;;;;;;5108216;27;20461;-76
2021/06/24 01:35:57;;;;;;;8.03;7.00;;;17.00;1.00;;;;;;5102324;27;20424;-77
2021/06/24 01:38:24;;;;;;;7.67;6.83;;;17.00;1.00;;;;;;5106702;27;21163;-77
2021/06/24 01:40:53;;;;;;;8.13;7.00;;;17.10;1.00;;;;;;5104730;27;21308;-76
2021/06/24 01:43:20;;;;;;;7.33;6.53;;;17.10;1.00;;;;;;5108725;27;20466;-76
2021/06/24 01:45:47;;;;;;;8.50;6.87;;;17.10;1.00;;;;;;5106881;27;20463;-76
2021/06/24 01:48:14;;;;;;;9.30;7.10;;;17.10;1.00;;;;;;5105776;27;20466;-76
2021/06/24 01:50:41;;;;;;;9.23;7.00;;;17.20;1.00;;;;;;5104137;27;20460;-76
2021/06/24 01:53:08;;;;;;;6.60;6.10;;;17.10;1.00;;;;;;5105662;27;20496;-76
2021/06/24 01:55:36;;;;;;;6.60;6.07;;;17.20;1.00;;;;;;5104296;27;20429;-77
2021/06/24 01:58:07;;;;;;;7.70;6.20;;;17.20;1.00;;;;;;5105606;27;21288;-76
2021/06/24 02:00:34;;;;;;;7.90;6.70;;;17.30;1.00;;;;;;5106894;27;20457;-77
2021/06/24 02:03:01;;;;;;;7.80;6.93;;;17.20;1.00;;;;;;5107300;27;20434;-76
2021/06/24 02:05:28;;;;;;;6.57;6.00;;;17.20;1.00;;;;;;5105591;27;20938;-76
2021/06/24 02:07:55;;;;;;;9.60;7.47;;;17.20;1.00;;;;;;5105881;27;20465;-76
2021/06/24 02:10:22;;;;;;;7.00;6.40;;;17.30;1.00;;;;;;5109577;27;20442;-77
2021/06/24 02:12:48;;;;;;;7.50;6.20;;;17.30;1.00;;;;;;5107782;27;20465;-77
2021/06/24 02:15:17;;;;;;;7.37;6.40;;;17.30;1.00;;;;;;5108381;27;20733;-77
2021/06/24 02:17:44;;;;;;;8.33;7.50;;;17.30;1.00;;;;;;5105960;27;20563;-76
2021/06/24 02:20:14;;;;;;;7.73;6.27;;;17.30;1.00;;;;;;5105599;27;20522;-76
2021/06/24 02:22:41;;;;;;;8.20;7.10;;;17.30;1.00;;;;;;5106628;27;20474;-76
2021/06/24 02:25:12;;;;;;;7.33;6.63;;;17.30;1.00;;;;;;5105432;27;20439;-76
2021/06/24 02:27:39;;;;;;;10.20;6.70;;;17.20;1.00;;;;;;5106808;27;21299;-76
2021/06/24 02:30:08;;;;;;;7.57;6.50;;;17.20;1.00;;;;;;5106363;27;20953;-76
2021/06/24 02:32:36;;;;;;;6.80;6.20;;;17.20;1.00;;;;;;5104124;27;21521;-76
2021/06/24 02:35:04;;;;;;;7.13;6.30;;;17.20;1.00;;;;;;5105843;27;20925;-76
2021/06/24 02:37:31;;;;;;;9.03;7.23;;;17.20;1.00;;;;;;5106132;27;20500;-76
2021/06/24 02:39:58;;;;;;;7.93;7.03;;;17.30;1.00;;;;;;5107858;27;20502;-76
2021/06/24 02:42:25;;;;;;;10.87;6.60;;;17.30;1.00;;;;;;5101383;27;21750;-77
2021/06/24 02:44:51;;;;;;;7.93;6.00;;;17.30;1.00;;;;;;5106661;27;20536;-76
2021/06/24 02:47:18;;;;;;;7.07;6.37;;;17.20;1.00;;;;;;5106869;27;20518;-76
2021/06/24 02:49:46;;;;;;;7.00;6.30;;;17.30;1.00;;;;;;5106744;27;20528;-76
2021/06/24 02:52:13;;;;;;;8.63;6.87;;;17.20;1.00;;;;;;5105109;27;20450;-76
2021/06/24 02:54:40;;;;;;;6.50;5.90;;;17.20;1.00;;;;;;5108667;27;20541;-76
2021/06/24 02:57:07;;;;;;;9.53;6.03;;;17.20;1.00;;;;;;5108530;27;20470;-76
2021/06/24 02:59:34;;;;;;;7.63;6.70;;;17.20;1.00;;;;;;5114665;27;20479;-76
2021/06/24 03:02:01;;;;;;;11.17;6.80;;;17.20;1.00;;;;;;5111829;27;20562;-76
2021/06/24 03:04:28;;;;;;;7.90;7.07;;;17.20;1.00;;;;;;5112830;27;21414;-76
2021/06/24 03:06:56;;;;;;;7.30;6.63;;;17.10;1.00;;;;;;5111680;27;20451;-78
2021/06/24 03:09:23;;;;;;;7.93;7.20;;;17.10;1.00;;;;;;5112230;27;21722;-76
2021/06/24 03:11:50;;;;;;;9.40;6.67;;;17.10;1.00;;;;;;5116429;27;20463;-76
2021/06/24 03:14:16;;;;;;;7.97;7.13;;;17.10;1.00;;;;;;5115745;27;20533;-76
2021/06/24 03:16:43;;;;;;;8.23;7.40;;;17.10;1.00;;;;;;5122334;27;20450;-77
2021/06/24 03:19:10;;;;;;;6.80;6.17;;;17.10;1.00;;;;;;5120400;27;20473;-77
2021/06/24 03:21:37;;;;;;;8.20;7.00;;;17.20;1.00;;;;;;5119541;27;20527;-76
2021/06/24 03:24:07;;;;;;;9.47;7.07;;;17.20;1.00;;;;;;5108194;27;20577;-76
2021/06/24 03:26:34;;;;;;;8.97;7.50;;;17.20;1.00;;;;;;5109306;27;20529;-76
2021/06/24 03:29:00;;;;;;;9.37;7.20;;;17.20;1.00;;;;;;5106906;27;20443;-76
2021/06/24 03:31:27;;;;;;;8.50;7.20;;;17.20;1.00;;;;;;5108088;27;20814;-76
2021/06/24 03:33:54;;;;;;;8.70;7.30;;;17.20;1.00;;;;;;5111927;27;20437;-76
2021/06/24 03:36:21;;;;;;;8.93;7.40;;;17.20;1.00;;;;;;5112256;27;20827;-75
2021/06/24 03:38:48;;;;;;;8.63;7.60;;;17.20;1.00;;;;;;5103376;27;20449;-76
2021/06/24 03:41:23;;;;;;;7.50;6.67;;;17.20;1.00;;;;;;5107686;27;20952;-76
2021/06/24 03:43:50;;;;;;;11.30;8.77;;;17.20;1.00;;;;;;5107152;27;20491;-76
2021/06/24 03:46:17;;;;;;;7.53;6.63;;;17.20;1.00;;;;;;5112350;27;20457;-77
2021/06/24 03:48:43;;;;;;;8.70;7.80;;;17.30;1.00;;;;;;5107745;27;20461;-77
2021/06/24 03:51:10;;;;;;;10.87;7.03;;;17.30;1.00;;;;;;5104940;27;20481;-77
2021/06/24 03:53:37;;;;;;;7.70;6.83;;;17.30;1.00;;;;;;5110879;27;20442;-77
2021/06/24 03:56:04;;;;;;;10.27;7.27;;;17.30;1.00;;;;;;5104702;27;20578;-76
2021/06/24 03:58:32;;;;;;;9.23;7.83;;;17.30;1.00;;;;;;5110949;27;21050;-76
2021/06/24 04:00:58;;;;;;;8.43;7.43;;;17.30;1.00;;;;;;5105589;27;20500;-77
2021/06/24 04:03:25;;;;;;;7.37;6.60;;;17.30;1.00;;;;;;5110608;27;21516;-77
2021/06/24 04:05:52;;;;;;;13.70;7.17;;;17.30;1.00;;;;;;5108448;27;21013;-77
2021/06/24 04:08:19;;;;;;;10.50;7.20;;;17.30;1.00;;;;;;5109317;27;20456;-77
2021/06/24 04:10:45;;;;;;;9.40;7.50;;;17.30;1.00;;;;;;5107112;27;20458;-77
2021/06/24 04:13:12;;;;;;;14.90;8.97;;;17.30;1.00;;;;;;5111066;27;20417;-76
2021/06/24 04:15:40;;;;;;;13.27;7.50;;;17.40;1.00;;;;;;5107801;27;20525;-77
2021/06/24 04:18:08;;;;;;;12.33;7.73;;;17.40;1.00;;;;;;5111510;27;20993;-78
2021/06/24 04:20:35;;;;;;;8.00;6.70;;;17.40;1.00;;;;;;5105617;27;20547;-77
2021/06/24 04:23:03;;;;;;;9.90;8.70;;;17.40;1.00;;;;;;5112290;27;20454;-78
2021/06/24 04:25:35;;;;;;;13.20;9.50;;;17.50;1.00;;;;;;5110972;27;20447;-76
2021/06/24 04:28:01;;;;;;;9.50;7.87;;;17.70;1.00;;;;;;5110409;27;20468;-76
2021/06/24 04:30:28;;;;;;;12.07;10.97;;;17.70;1.00;;;;;;5110926;27;20463;-76
2021/06/24 04:32:58;;;;;;;9.07;7.60;;;17.70;1.00;;;;;;5109161;27;20556;-77
2021/06/24 04:35:26;;;;;;;11.87;10.10;;;17.70;1.00;;;;;;5110471;27;20455;-76
2021/06/24 04:37:53;;;;;;;9.30;7.37;;;17.70;1.00;;;;;;5105007;27;20463;-76
2021/06/24 04:40:20;;;;;;;13.03;8.00;;;17.70;1.00;;;;;;5112249;27;20454;-77
2021/06/24 04:42:46;;;;;;;9.10;8.10;;;17.70;1.00;;;;;;5108120;27;21522;-77
2021/06/24 04:45:14;;;;;;;9.37;8.20;;;17.70;1.00;;;;;;5111992;27;21158;-76
2021/06/24 04:47:41;;;;;;;10.13;9.03;;;17.60;1.00;;;;;;5105927;27;21474;-76
2021/06/24 04:50:10;;;;;;;15.17;10.40;;;17.60;1.00;;;;;;5107936;27;20534;-77
2021/06/24 04:52:37;;;;;;;10.77;9.20;;;17.50;1.00;;;;;;5108913;27;20426;-77
2021/06/24 04:55:05;;;;;;;11.87;8.73;;;17.50;1.00;;;;;;5108395;27;20467;-77
2021/06/24 04:57:32;;;;;;;15.07;11.17;;;17.40;1.00;;;;;;5107497;27;20524;-77
2021/06/24 04:59:59;;;;;;;11.53;9.80;;;17.40;1.00;;;;;;5110104;27;20460;-77
2021/06/24 05:02:25;;;;;;;13.00;9.03;;;17.30;1.00;;;;;;5107746;27;20522;-76
2021/06/24 05:04:54;;;;;;;9.87;8.73;;;17.30;1.00;;;;;;5109419;27;20527;-76
2021/06/24 05:07:22;;;;;;;10.17;9.20;;;17.40;1.00;;;;;;5114354;27;20654;-76
2021/06/24 05:09:49;;;;;;;12.10;8.33;;;17.40;1.00;;;;;;5112567;27;20486;-76
2021/06/24 05:12:16;;;;;;;17.83;10.90;;;17.50;1.00;;;;;;5109245;27;20416;-76
2021/06/24 05:14:42;;;;;;;15.27;10.30;;;17.50;1.00;;;;;;5111720;27;20504;-76
2021/06/24 05:17:14;;;;;;;12.00;10.80;;;17.60;1.00;;;;;;5117960;27;20446;-77
2021/06/24 05:19:42;;;;;;;12.37;9.20;;;17.60;1.00;;;;;;5109349;27;20459;-78
2021/06/24 05:22:09;;;;;;;16.77;10.83;;;17.60;1.00;;;;;;5110469;27;20543;-77
2021/06/24 05:24:39;;;;;;;16.50;11.50;;;17.50;1.00;;;;;;5105943;27;20435;-76
2021/06/24 05:27:06;;;;;;;19.07;12.97;;;17.30;1.00;;;;;;5123320;27;20488;-76
2021/06/24 05:29:33;;;;;;;15.20;12.00;;;17.20;1.00;;;;;;5109504;27;20458;-76
2021/06/24 05:31:59;;;;;;;13.63;11.27;;;17.20;1.00;;;;;;5111135;27;20454;-76
2021/06/24 05:34:26;;;;;;;12.67;11.50;;;17.10;1.00;;;;;;5110002;27;20513;-76
2021/06/24 05:36:53;;;;;;;19.60;12.47;;;17.00;1.00;;;;;;5112714;27;21383;-76
2021/06/24 05:39:19;;;;;;;14.20;12.53;;;16.90;1.00;;;;;;5105619;27;21014;-75
2021/06/24 05:41:48;;;;;;;14.07;12.63;;;16.80;1.00;;;;;;5115194;27;20454;-77
2021/06/24 05:44:14;;;;;;;15.77;14.17;;;16.80;1.00;;;;;;5106482;27;20473;-77
2021/06/24 05:46:42;;;;;;;16.13;12.57;;;16.80;1.00;;;;;;5108928;27;20457;-77
2021/06/24 05:49:08;;;;;;;12.67;11.30;;;16.80;1.00;;;;;;5105152;27;20465;-77
2021/06/24 05:51:35;;;;;;;16.97;13.93;;;16.80;1.00;;;;;;5109356;27;20462;-77
2021/06/24 05:54:02;;;;;;;19.43;13.70;;;16.80;1.00;;;;;;5107205;27;20434;-76
2021/06/24 05:56:29;;;;;;;16.10;14.30;;;16.80;1.00;;;;;;5106168;27;20454;-77
2021/06/24 05:58:58;;;;;;;17.67;13.73;;;16.70;1.00;;;;;;5108393;27;21269;-76
2021/06/24 06:01:24;;;;;;;15.30;12.97;;;16.70;1.00;;;;;;5110636;27;20492;-76
2021/06/24 06:03:51;;;;;;;16.67;14.30;;;16.60;1.00;;;;;;5105033;27;20474;-76
2021/06/24 06:06:18;;;;;;;15.43;13.83;;;16.70;1.00;;;;;;5095767;27;22457;-76
2021/06/24 06:08:44;;;;;;;16.80;14.77;;;16.70;1.00;;;;;;5101348;27;20542;-76
2021/06/24 06:11:11;;;;;;;18.30;14.60;;;16.70;1.00;;;;;;5095113;27;20433;-76
2021/06/24 06:13:38;;;;;;;16.17;14.47;;;16.70;1.00;;;;;;5099354;27;20439;-77
2021/06/24 06:16:07;;;;;;;18.93;16.77;;;16.80;1.00;;;;;;5096313;27;20523;-77
2021/06/24 06:18:34;;;;;;;16.10;13.77;;;16.90;1.00;;;;;;5105363;27;20521;-77
2021/06/24 06:21:01;;;;;;;16.97;15.20;;;16.90;1.00;;;;;;5093503;27;20437;-77
2021/06/24 06:23:29;;;;;;;16.60;14.90;;;17.00;1.00;;;;;;5099815;27;20587;-77
2021/06/24 06:25:56;;;;;;;19.20;15.77;;;17.00;1.00;;;;;;5097338;27;20459;-77
2021/06/24 06:28:24;;;;;;;19.73;15.43;;;17.00;1.00;;;;;;5111517;27;20476;-76
2021/06/24 06:30:52;;;;;;;19.03;16.13;;;17.10;1.00;;;;;;5106165;27;20561;-76
2021/06/24 06:33:21;;;;;;;18.20;16.40;;;17.20;1.00;;;;;;5110993;27;20517;-76
2021/06/24 06:35:50;;;;;;;17.90;16.10;;;17.20;1.00;;;;;;5106409;27;20615;-76
2021/06/24 06:38:18;;;;;;;16.23;14.63;;;17.30;1.00;;;;;;5109518;27;20567;-76
2021/06/24 06:40:45;;;;;;;18.60;16.73;;;17.30;1.00;;;;;;5108066;27;20583;-77
2021/06/24 06:43:15;;;;;;;20.77;15.70;;;17.30;1.00;;;;;;5115736;27;20478;-77
2021/06/24 06:45:41;;;;;;;18.60;16.63;;;17.30;1.00;;;;;;5115613;27;20442;-77
2021/06/24 06:48:08;;;;;;;19.77;14.70;;;17.40;1.00;;;;;;5113815;27;20639;-76
2021/06/24 06:50:37;;;;;;;16.80;14.23;;;17.40;1.00;;;;;;5115639;27;20540;-76
2021/06/24 06:53:05;;;;;;;16.90;15.17;;;17.40;1.00;;;;;;5115847;27;20439;-74
2021/06/24 06:55:32;;;;;;;17.07;14.60;;;17.40;1.00;;;;;;5114061;27;20517;-74
2021/06/24 06:58:00;;;;;;;18.73;16.20;;;17.40;1.00;;;;;;5111114;27;20467;-75
2021/06/24 07:00:28;;;;;;;17.33;15.50;;;17.50;1.00;;;;;;5120281;27;20402;-75
2021/06/24 07:02:56;;;;;;;19.67;17.00;;;17.50;1.00;;;;;;5111900;27;20455;-74
2021/06/24 07:05:23;;;;;;;21.73;16.40;;;17.60;1.00;;;;;;5118294;27;20451;-77
2021/06/24 07:07:51;;;;;;;17.57;15.77;;;17.60;1.00;;;;;;5115150;27;21436;-77
2021/06/24 07:10:19;;;;;;;17.03;15.03;;;17.70;1.00;;;;;;5128175;27;20517;-77
2021/06/24 07:12:46;;;;;;;20.53;14.63;;;17.80;1.00;;;;;;5118745;27;20479;-77
2021/06/24 07:15:13;;;;;;;19.50;14.60;;;18.00;1.00;;;;;;5113571;27;20459;-77
2021/06/24 07:17:41;;;;;;;18.80;15.13;;;17.90;1.00;;;;;;5116544;27;21403;-76
2021/06/24 07:20:09;;;;;;;18.13;15.77;;;18.10;1.00;;;;;;5113506;27;20439;-78
2021/06/24 07:22:35;;;;;;;17.13;15.30;;;18.10;1.00;;;;;;5110197;27;20556;-78
2021/06/24 07:25:05;;;;;;;17.43;15.40;;;18.10;1.00;;;;;;5115765;27;20432;-77
2021/06/24 07:27:31;;;;;;;15.90;14.20;;;18.10;1.00;;;;;;5125451;27;20535;-78
2021/06/24 07:29:58;;;;;;;16.57;14.87;;;18.10;1.00;;;;;;5126913;27;20449;-78
2021/06/24 07:32:25;;;;;;;17.03;15.23;;;18.00;1.00;;;;;;5119957;27;20581;-78
2021/06/24 07:34:51;;;;;;;18.13;15.90;;;18.00;1.00;;;;;;5118364;27;20442;-78
2021/06/24 07:37:18;;;;;;;18.03;16.07;;;18.00;1.00;;;;;;5117972;27;21858;-78
2021/06/24 07:39:45;;;;;;;17.33;15.50;;;17.90;1.00;;;;;;5121067;27;20448;-77
2021/06/24 07:42:13;;;;;;;17.33;15.63;;;17.90;1.00;;;;;;5119285;27;20463;-77
2021/06/24 07:44:40;;;;;;;19.33;17.33;;;18.00;1.00;;;;;;5114073;27;20451;-76
2021/06/24 07:47:06;;;;;;;19.20;17.20;;;18.00;1.00;;;;;;5125108;27;20459;-76
2021/06/24 07:49:36;;;;;;;18.80;16.83;;;18.00;1.00;;;;;;5113667;27;20439;-77
2021/06/24 07:52:04;;;;;;;18.83;16.93;;;18.10;1.00;;;;;;5122356;27;20437;-78
2021/06/24 07:54:30;;;;;;;19.13;17.17;;;18.20;1.00;;;;;;5117571;27;21405;-78
2021/06/24 07:56:57;;;;;;;18.27;15.80;;;18.30;1.00;;;;;;5118395;27;20448;-77
2021/06/24 07:59:25;;;;;;;19.20;17.30;;;18.50;1.00;;;;;;5116594;27;20456;-77
2021/06/24 08:01:52;;;;;;;18.57;16.50;;;18.70;1.00;;;;;;5115890;27;20460;-76
2021/06/24 08:04:18;;;;;;;19.03;17.33;;;18.90;1.00;;;;;;5109180;27;20453;-76
2021/06/24 08:06:45;;;;;;;18.83;16.83;;;19.00;1.00;;;;;;5115496;27;20629;-76
2021/06/24 08:09:14;;;;;;;18.90;16.90;;;19.10;1.00;;;;;;5108234;27;20455;-76
2021/06/24 08:11:41;;;;;;;19.63;16.00;;;19.20;1.00;;;;;;5119767;27;20468;-76
2021/06/24 08:14:07;;;;;;;17.50;15.70;;;19.40;1.00;;;;;;5115987;27;20871;-76
2021/06/24 08:16:36;;;;;;;22.00;17.13;;;19.50;1.00;;;;;;5111172;27;20545;-77
2021/06/24 08:19:03;;;;;;;18.93;17.03;;;19.60;1.00;;;;;;5118981;27;21090;-76
2021/06/24 08:21:30;;;;;;;22.63;20.33;;;19.80;1.00;;;;;;5110385;27;20456;-76
2021/06/24 08:23:57;;;;;;;21.73;18.30;;;19.80;1.00;;;;;;5113808;27;20445;-76
2021/06/24 08:26:23;;;;;;;22.20;18.50;;;20.00;1.00;;;;;;5110018;27;21114;-76
2021/06/24 08:28:51;;;;;;;18.97;16.87;;;20.00;1.00;;;;;;5113993;27;20441;-77
2021/06/24 08:31:17;;;;;;;21.97;18.23;;;20.10;1.00;;;;;;5112122;27;20529;-75
2021/06/24 08:33:45;;;;;;;18.57;15.80;;;20.20;1.00;;;;;;5108414;27;20548;-77
2021/06/24 08:36:12;;;;;;;16.63;14.93;;;20.30;1.00;;;;;;5106058;27;20442;-76
2021/06/24 08:38:38;;;;;;;17.87;15.80;;;20.50;1.00;;;;;;5109217;27;20483;-77
2021/06/24 08:41:05;;;;;;;17.20;13.90;;;20.50;1.00;;;;;;5104227;27;20436;-77
2021/06/24 08:43:32;;;;;;;14.50;13.20;;;20.50;1.00;;;;;;5109884;27;20471;-77
2021/06/24 08:46:01;;;;;;;14.87;13.20;;;20.60;1.00;;;;;;5107835;27;21098;-76
2021/06/24 08:48:34;;;;;;;15.23;13.40;;;20.60;1.00;;;;;;5107046;27;20452;-77
2021/06/24 08:51:02;;;;;;;15.87;13.67;;;20.70;1.00;;;;;;5103831;27;20440;-77
2021/06/24 08:53:32;;;;;;;16.37;14.70;;;20.60;1.00;;;;;;5113992;27;20597;-77
2021/06/24 08:55:59;;;;;;;16.40;13.73;;;20.60;1.00;;;;;;5116361;27;20519;-79
2021/06/24 08:58:26;;;;;;;16.03;13.43;;;20.50;1.00;;;;;;5116038;27;20491;-79
2021/06/24 09:00:54;;;;;;;19.33;14.90;;;20.60;1.00;;;;;;5118403;27;20499;-79
2021/06/24 09:03:22;;;;;;;14.50;13.10;;;20.70;1.00;;;;;;5110716;27;21013;-78
2021/06/24 09:05:52;;;;;;;20.27;15.10;;;20.70;1.00;;;;;;5118713;27;20500;-78
2021/06/24 09:08:35;;;;;;;16.93;15.17;;;20.70;1.00;;;;;;5112393;27;20464;-79
2021/06/24 09:11:16;;;;;;;15.23;13.33;;;20.70;1.00;;;;;;5117165;27;20456;-78
2021/06/24 09:13:43;;;;;;;14.10;12.67;;;20.70;1.00;;;;;;5111553;27;20414;-80
2021/06/24 09:16:22;;;;;;;13.97;12.70;;;20.70;1.00;;;;;;5117468;27;20468;-81
2021/06/24 09:18:49;;;;;;;15.67;13.83;;;20.80;1.00;;;;;;5118354;27;20456;-78
2021/06/24 09:21:23;;;;;;;16.97;12.90;;;21.00;1.00;;;;;;5120262;27;20438;-78
2021/06/24 09:23:53;;;;;;;15.30;12.53;;;21.10;1.00;;;;;;5118427;27;20459;-77
2021/06/24 09:26:21;;;;;;;15.87;13.30;;;21.00;1.00;;;;;;5112189;27;20455;-77
2021/06/24 09:28:51;;;;;;;14.83;13.07;;;20.90;1.00;;;;;;5108263;27;20528;-76
2021/06/24 09:31:25;;;;;;;14.63;11.90;;;20.90;1.00;;;;;;5106062;27;21943;-75
2021/06/24 09:33:52;;;;;;;16.13;13.83;;;20.90;1.00;;;;;;5107433;27;21029;-76
2021/06/24 09:36:33;;;;;;;16.90;13.57;;;20.90;1.00;;;;;;5109222;27;20472;-76
2021/06/24 09:39:03;;;;;;;15.13;13.73;;;21.00;1.00;;;;;;5102875;27;20460;-76
2021/06/24 09:41:30;;;;;;;14.53;13.13;;;21.20;1.00;;;;;;5108354;27;20440;-76
2021/06/24 09:43:56;;;;;;;16.23;12.03;;;21.50;1.00;;;;;;5106676;27;20467;-75
2021/06/24 09:46:26;;;;;;;14.13;12.30;;;21.80;1.00;;;;;;5107715;27;23443;-76
2021/06/24 09:48:57;;;;;;;12.93;11.73;;;22.00;1.00;;;;;;5105558;27;20435;-76
2021/06/24 09:51:25;;;;;;;14.30;12.10;;;22.00;1.00;;;;;;5108012;27;20462;-76
2021/06/24 09:53:55;;;;;;;11.30;10.10;;;22.10;1.00;;;;;;5106756;27;20886;-76
2021/06/24 09:56:25;;;;;;;17.10;11.87;;;22.10;1.00;;;;;;5107768;27;20463;-75
2021/06/24 09:58:53;;;;;;;11.87;10.77;;;22.10;1.00;;;;;;5107856;27;20457;-75
2021/06/24 10:01:28;;;;;;;14.13;11.73;;;22.10;1.00;;;;;;5108454;27;20519;-76
2021/06/24 10:03:57;;;;;;;11.57;10.40;;;22.10;1.00;;;;;;5108361;27;20420;-76
2021/06/24 10:06:25;;;;;;;14.00;12.50;;;22.10;1.00;;;;;;5111394;27;20456;-76
2021/06/24 10:08:52;;;;;;;11.00;9.80;;;22.10;1.00;;;;;;5109523;27;20418;-77
2021/06/24 10:11:20;;;;;;;18.13;15.90;;;21.90;1.00;;;;;;5114754;27;20434;-77
2021/06/24 10:13:48;;;;;;;13.20;11.83;;;21.70;1.00;;;;;;5113897;27;20542;-77
2021/06/24 10:16:16;;;;;;;14.77;11.00;;;21.70;1.00;;;;;;5108668;27;20461;-77
2021/06/24 10:18:46;;;;;;;14.30;11.60;;;21.90;1.00;;;;;;5109834;27;20461;-76
2021/06/24 10:21:14;;;;;;;12.17;10.53;;;22.20;1.00;;;;;;5104705;27;21270;-76
2021/06/24 10:23:49;;;;;;;12.03;10.83;;;22.40;1.00;;;;;;5110652;27;20594;-76
2021/06/24 10:26:17;;;;;;;15.73;12.20;;;22.40;1.00;;;;;;5101588;27;20562;-76
2021/06/24 10:28:43;;;;;;;13.80;12.43;;;22.30;1.00;;;;;;5109459;27;20618;-77
2021/06/24 10:31:36;;;;;;;13.10;11.90;;;22.00;1.00;;;;;;5102723;27;20485;-76
2021/06/24 10:34:03;;;;;;;12.70;11.57;;;21.80;1.00;;;;;;5105266;27;20458;-76
2021/06/24 10:36:31;;;;;;;14.80;13.30;;;21.50;1.00;;;;;;5103183;27;20539;-75
2021/06/24 10:38:58;;;;;;;17.97;13.83;;;21.30;1.00;;;;;;5107147;27;20480;-75
2021/06/24 10:41:25;;;;;;;16.60;13.07;;;21.20;1.00;;;;;;5106671;27;20556;-76
2021/06/24 10:43:53;;;;;;;13.53;12.33;;;21.20;1.00;;;;;;5108985;27;20457;-76
2021/06/24 10:46:24;;;;;;;17.60;13.90;;;21.20;1.00;;;;;;5107327;27;21039;-76
2021/06/24 10:48:53;;;;;;;14.83;13.40;;;21.50;1.00;;;;;;5108796;27;20469;-77
2021/06/24 10:51:20;;;;;;;15.67;12.33;;;21.90;1.00;;;;;;5105342;27;20462;-76
2021/06/24 10:53:49;;;;;;;14.50;11.80;;;22.40;1.00;;;;;;5112177;27;20446;-75
2021/06/24 10:56:33;;;;;;;15.93;12.20;;;22.70;1.00;;;;;;5101970;27;20463;-75
2021/06/24 10:59:03;;;;;;;16.10;12.00;;;22.90;1.00;;;;;;5105550;27;20441;-77
2021/06/24 11:01:45;;;;;;;20.30;13.47;;;23.00;1.00;;;;;;5103789;27;20512;-77
2021/06/24 11:07:33;;;;;;;15.47;11.70;;;23.30;1.00;;;;;;5182377;27;20556;-77
2021/06/24 11:10:27;;;;;;;15.30;13.67;;;24.20;1.00;;;;;;5170980;27;20545;-77
2021/06/24 11:12:56;;;;;;;13.53;10.87;;;24.60;1.00;;;;;;5178908;27;21275;-77
2021/06/24 11:15:49;;;;;;;15.70;14.10;;;24.60;1.00;;;;;;5184402;27;20431;-77
2021/06/24 11:18:49;;;;;;;9.53;8.73;;;25.20;1.00;;;;;;5168182;27;20581;-77
2021/06/24 11:21:22;;;;;;;11.40;10.33;;;25.70;1.00;;;;;;5183737;27;20517;-75
2021/06/24 11:23:53;;;;;;;12.80;10.23;;;25.70;1.00;;;;;;5188342;27;20510;-76
2021/06/24 11:26:29;;;;;;;12.13;10.97;;;25.30;1.00;;;;;;5183109;27;20450;-76
2021/06/24 11:29:01;;;;;;;10.80;9.80;;;24.90;1.00;;;;;;5186154;27;20450;-75
2021/06/24 11:31:39;;;;;;;11.93;10.83;;;24.50;1.00;;;;;;5181818;27;20446;-76
2021/06/24 11:34:14;;;;;;;9.73;8.90;;;24.30;1.00;;;;;;5178834;27;20461;-76
2021/06/24 11:36:48;;;;;;;11.20;10.10;;;24.20;1.00;;;;;;5189113;27;20440;-76
2021/06/24 11:39:23;;;;;;;12.20;11.10;;;24.20;1.00;;;;;;5185070;27;20445;-77
2021/06/24 11:41:54;;;;;;;10.43;9.53;;;24.20;1.00;;;;;;5168213;27;21646;-77
2021/06/24 11:44:25;;;;;;;8.87;7.90;;;24.30;1.00;;;;;;5178782;27;20441;-76
2021/06/24 11:46:57;;;;;;;8.47;7.10;;;24.50;1.00;;;;;;5186873;27;21139;-76
2021/06/24 11:49:37;;;;;;;8.43;7.63;;;24.70;1.00;;;;;;5186572;27;20459;-77
2021/06/24 12:00:44;;;;;;;12.43;10.27;;;24.80;1.00;;;;;;5194396;27;20475;-77
2021/06/24 12:03:18;;;;;;;8.27;7.60;;;24.90;1.00;;;;;;5185292;27;20437;-77
2021/06/24 12:05:51;;;;;;;9.50;8.60;;;24.90;1.00;;;;;;5187520;27;21707;-77
2021/06/24 12:08:22;;;;;;;9.77;9.00;;;25.00;1.00;;;;;;5200513;27;20447;-78
2021/06/24 12:10:51;;;;;;;11.43;8.60;;;25.10;1.00;;;;;;5195495;27;20459;-79
2021/06/24 12:13:31;;;;;;;12.83;9.40;;;25.10;1.00;;;;;;5194434;27;20452;-79
2021/06/24 12:15:59;;;;;;;9.47;8.50;;;25.00;1.00;;;;;;5195196;27;20977;-78
2021/06/24 12:18:38;;;;;;;12.00;8.60;;;24.70;1.00;;;;;;5175659;27;21247;-78
2021/06/24 12:21:07;;;;;;;10.47;6.90;;;24.50;1.00;;;;;;5158099;27;20444;-78
2021/06/24 12:23:45;;;;;;;11.37;6.73;;;24.30;1.00;;;;;;5176645;27;20516;-78
2021/06/24 12:26:15;;;;;;;8.80;7.90;;;24.40;1.00;;;;;;5185896;27;20531;-77
2021/06/24 12:28:43;;;;;;;7.90;7.13;;;24.40;1.00;;;;;;5185461;27;20472;-77
2021/06/24 12:31:17;;;;;;;8.50;6.40;;;24.60;1.00;;;;;;5188612;27;20498;-77
2021/06/24 12:33:45;;;;;;;8.83;7.73;;;24.60;1.00;;;;;;5187630;27;20573;-79
2021/06/24 12:36:12;;;;;;;8.73;7.83;;;24.80;1.00;;;;;;5172052;27;20477;-78
2021/06/24 12:38:43;;;;;;;7.83;6.60;;;24.90;1.00;;;;;;5178731;27;20434;-80
2021/06/24 12:41:13;;;;;;;8.90;6.90;;;25.00;1.00;;;;;;5178537;27;20468;-78
2021/06/24 12:43:42;;;;;;;6.83;6.27;;;25.20;1.00;;;;;;5190842;27;20429;-79
2021/06/24 12:46:09;;;;;;;8.00;7.20;;;25.50;1.00;;;;;;5184644;27;20656;-79
2021/06/24 12:48:37;;;;;;;7.47;6.80;;;25.70;1.00;;;;;;5181058;27;21239;-77
2021/06/24 12:51:05;;;;;;;7.17;5.33;;;25.80;1.00;;;;;;5175325;27;20457;-77
2021/06/24 12:53:34;;;;;;;6.07;5.57;;;25.80;1.00;;;;;;5182301;27;20416;-79
2021/06/24 12:56:02;;;;;;;7.30;5.80;;;26.00;1.00;;;;;;5174629;27;21086;-79
2021/06/24 12:58:35;;;;;;;7.37;6.03;;;26.00;1.00;;;;;;5180010;27;23536;-79
2021/06/24 13:01:12;;;;;;;6.10;5.50;;;26.10;1.00;;;;;;5173446;27;21289;-78
2021/06/24 13:03:45;;;;;;;6.43;5.90;;;26.10;1.00;;;;;;5173963;27;20415;-77